Time;durP1;ratioP1;P1;durP2;ratioP2;P2;SDS_P1;SDS_P2;PMS_P1;PMS_P2;Temp;Humidity;BMP_temperature;BMP_pressure;BME280_temperature;BME280_humidity;BME280_pressure;Samples;Min_cycle;Max_cycle;Signal;HPM_P1;HPM_P2
2023/05/31 00:00:15;;;;;;;3.25;1.42;;;;;;;;;;5051475;28;20675;-50
2023/05/31 00:03:02;;;;;;;2.33;1.25;;;;;;;;;;5052736;28;20213;-51
2023/05/31 00:05:30;;;;;;;2.47;1.30;;;;;;;;;;5052869;28;20211;-53
2023/05/31 00:07:57;;;;;;;2.92;1.20;;;;;;;;;;5053137;28;20205;-54
2023/05/31 00:10:24;;;;;;;2.20;1.45;;;;;;;;;;5052609;28;20203;-51
2023/05/31 00:12:51;;;;;;;2.95;1.40;;;;;;;;;;5052844;28;20196;-53
2023/05/31 00:15:18;;;;;;;2.22;1.25;;;;;;;;;;5053900;28;20700;-51
2023/05/31 00:17:45;;;;;;;4.57;1.20;;;;;;;;;;5056346;28;20211;-53
2023/05/31 00:20:17;;;;;;;1.77;1.42;;;;;;;;;;5056485;28;20193;-50
2023/05/31 00:22:44;;;;;;;3.15;1.30;;;;;;;;;;5056155;28;20244;-51
2023/05/31 00:25:12;;;;;;;2.92;1.30;;;;;;;;;;5056469;28;20219;-51
2023/05/31 00:27:39;;;;;;;2.72;1.67;;;;;;;;;;5056278;28;20200;-50
2023/05/31 00:30:07;;;;;;;6.80;1.48;;;;;;;;;;5038486;28;20211;-51
2023/05/31 00:32:34;;;;;;;2.80;1.23;;;;;;;;;;5038400;28;20231;-55
2023/05/31 00:35:02;;;;;;;2.42;1.38;;;;;;;;;;5055850;28;20240;-52
2023/05/31 00:37:32;;;;;;;2.70;1.08;;;;;;;;;;5055894;28;20208;-51
2023/05/31 00:40:00;;;;;;;4.68;1.40;;;;;;;;;;5038208;28;20215;-51
2023/05/31 00:42:27;;;;;;;1.15;1.05;;;;;;;;;;5055914;28;20239;-51
2023/05/31 00:44:54;;;;;;;3.47;1.70;;;;;;;;;;5056158;28;20208;-49
2023/05/31 00:47:21;;;;;;;2.55;1.02;;;;;;;;;;5021698;28;20200;-51
2023/05/31 00:49:49;;;;;;;1.95;1.50;;;;;;;;;;5055722;28;20204;-51
2023/05/31 00:52:19;;;;;;;1.65;1.25;;;;;;;;;;5021950;28;20284;-53
2023/05/31 00:54:46;;;;;;;7.05;1.52;;;;;;;;;;5037992;28;20631;-55
2023/05/31 00:57:14;;;;;;;3.55;1.27;;;;;;;;;;5055643;28;20235;-52
2023/05/31 00:59:43;;;;;;;1.40;1.10;;;;;;;;;;5055617;28;20207;-53
2023/05/31 01:02:11;;;;;;;3.92;1.35;;;;;;;;;;5037603;28;20660;-51
2023/05/31 01:04:39;;;;;;;2.80;1.00;;;;;;;;;;5037985;28;20270;-52
2023/05/31 01:07:08;;;;;;;1.45;0.98;;;;;;;;;;5029218;28;20673;-50
2023/05/31 01:09:37;;;;;;;2.20;1.38;;;;;;;;;;5035496;28;20666;-52
2023/05/31 01:12:06;;;;;;;2.47;1.40;;;;;;;;;;5035540;28;20263;-52
2023/05/31 01:15:01;;;;;;;3.05;1.23;;;;;;;;;;5035282;28;20229;-53
2023/05/31 01:17:46;;;;;;;2.15;1.08;;;;;;;;;;5035278;28;20215;-51
2023/05/31 01:20:17;;;;;;;3.05;1.13;;;;;;;;;;5018021;28;20208;-51
2023/05/31 01:23:06;;;;;;;1.77;1.30;;;;;;;;;;5035687;28;20224;-51
2023/05/31 01:25:58;;;;;;;1.55;1.00;;;;;;;;;;5035148;28;20193;-52
2023/05/31 01:28:27;;;;;;;2.13;1.10;;;;;;;;;;5034861;28;20201;-51
2023/05/31 01:31:01;;;;;;;1.58;1.30;;;;;;;;;;5017595;28;20201;-51
2023/05/31 01:33:28;;;;;;;2.05;1.40;;;;;;;;;;5001798;28;20204;-52
2023/05/31 01:35:56;;;;;;;2.67;1.40;;;;;;;;;;5034842;28;20239;-52
2023/05/31 01:38:23;;;;;;;5.00;1.17;;;;;;;;;;5017379;28;20296;-50
2023/05/31 01:40:52;;;;;;;4.25;1.25;;;;;;;;;;5017230;28;20212;-51
2023/05/31 01:43:19;;;;;;;2.15;1.13;;;;;;;;;;5000929;28;20287;-50
2023/05/31 01:45:47;;;;;;;1.73;1.15;;;;;;;;;;5016940;28;20578;-53
2023/05/31 01:48:14;;;;;;;3.53;1.33;;;;;;;;;;5000648;28;20635;-52
2023/05/31 01:50:42;;;;;;;1.85;1.20;;;;;;;;;;5000630;28;20571;-52
2023/05/31 01:53:10;;;;;;;2.63;1.20;;;;;;;;;;5000554;28;20654;-50
2023/05/31 01:55:37;;;;;;;2.95;1.10;;;;;;;;;;5016782;28;20225;-51
2023/05/31 01:58:05;;;;;;;1.48;1.00;;;;;;;;;;5016836;28;20235;-50
2023/05/31 02:00:35;;;;;;;1.38;1.10;;;;;;;;;;5000565;28;20531;-51
2023/05/31 02:03:03;;;;;;;3.03;1.60;;;;;;;;;;5016524;28;20253;-50
2023/05/31 02:05:31;;;;;;;2.10;1.20;;;;;;;;;;5000590;28;20212;-51
2023/05/31 02:07:59;;;;;;;1.60;1.13;;;;;;;;;;5016566;28;20207;-50
2023/05/31 02:10:26;;;;;;;1.63;1.00;;;;;;;;;;5016339;28;20664;-50
2023/05/31 02:12:54;;;;;;;3.47;1.33;;;;;;;;;;5016601;28;20315;-51
2023/05/31 02:15:23;;;;;;;2.05;1.10;;;;;;;;;;5016557;28;20278;-52
2023/05/31 02:17:51;;;;;;;2.75;1.23;;;;;;;;;;5016414;28;20212;-50
2023/05/31 02:20:18;;;;;;;2.10;1.30;;;;;;;;;;5016443;28;20201;-50
2023/05/31 02:22:46;;;;;;;2.60;1.35;;;;;;;;;;5034230;28;20208;-51
2023/05/31 02:25:15;;;;;;;3.03;1.52;;;;;;;;;;5033671;28;20208;-51
2023/05/31 02:27:42;;;;;;;2.55;1.27;;;;;;;;;;5033697;28;20654;-51
2023/05/31 02:30:10;;;;;;;1.27;0.90;;;;;;;;;;5033629;28;20696;-52
2023/05/31 02:32:37;;;;;;;2.97;1.30;;;;;;;;;;5033778;28;20205;-51
2023/05/31 02:35:10;;;;;;;1.98;1.13;;;;;;;;;;5033500;28;20701;-55
2023/05/31 02:37:39;;;;;;;1.65;1.08;;;;;;;;;;5033673;28;20188;-52
2023/05/31 02:40:09;;;;;;;2.03;1.20;;;;;;;;;;5032743;28;20574;-50
2023/05/31 02:42:42;;;;;;;2.97;1.20;;;;;;;;;;5015903;28;20232;-53
2023/05/31 02:45:10;;;;;;;2.22;1.45;;;;;;;;;;5016287;28;20673;-56
2023/05/31 02:47:38;;;;;;;4.75;1.20;;;;;;;;;;5016133;28;20311;-51
2023/05/31 02:50:07;;;;;;;4.70;1.10;;;;;;;;;;5015991;28;20201;-52
2023/05/31 02:52:38;;;;;;;3.15;1.10;;;;;;;;;;5016588;28;20187;-51
2023/05/31 02:55:30;;;;;;;3.22;1.20;;;;;;;;;;5033373;28;20233;-54
2023/05/31 02:58:16;;;;;;;1.55;1.13;;;;;;;;;;5033788;28;20276;-51
2023/05/31 03:00:54;;;;;;;3.55;1.15;;;;;;;;;;5015956;28;20223;-50
2023/05/31 03:03:22;;;;;;;1.88;1.20;;;;;;;;;;5016005;28;20206;-50
2023/05/31 03:05:59;;;;;;;1.10;1.00;;;;;;;;;;5015852;28;20208;-52
2023/05/31 03:08:27;;;;;;;7.40;1.10;;;;;;;;;;5015849;28;20201;-51
2023/05/31 03:10:54;;;;;;;4.05;1.45;;;;;;;;;;5033705;28;20209;-51
2023/05/31 03:13:21;;;;;;;1.42;1.13;;;;;;;;;;5015684;28;20200;-51
2023/05/31 03:15:49;;;;;;;3.25;1.30;;;;;;;;;;5016146;28;20255;-51
2023/05/31 03:18:16;;;;;;;2.83;1.42;;;;;;;;;;5015637;28;20201;-52
2023/05/31 03:20:44;;;;;;;2.42;1.40;;;;;;;;;;5015826;28;20209;-50
2023/05/31 03:23:11;;;;;;;1.83;1.08;;;;;;;;;;5015736;28;20207;-52
2023/05/31 03:25:39;;;;;;;3.67;1.10;;;;;;;;;;5016168;28;20624;-53
2023/05/31 03:28:06;;;;;;;2.03;1.27;;;;;;;;;;5025353;28;20630;-53
2023/05/31 03:30:35;;;;;;;1.20;1.00;;;;;;;;;;5032408;28;20657;-51
2023/05/31 03:33:02;;;;;;;2.10;1.45;;;;;;;;;;5035560;28;20204;-54
2023/05/31 03:35:30;;;;;;;3.17;1.63;;;;;;;;;;5052890;28;20235;-54
2023/05/31 03:37:59;;;;;;;2.35;1.27;;;;;;;;;;5035405;28;20216;-54
2023/05/31 03:40:28;;;;;;;2.22;1.25;;;;;;;;;;5033898;28;20216;-52
2023/05/31 03:42:55;;;;;;;4.28;1.48;;;;;;;;;;5032388;28;20236;-51
2023/05/31 03:45:22;;;;;;;3.70;1.15;;;;;;;;;;5021362;28;20238;-51
2023/05/31 03:47:51;;;;;;;1.45;1.17;;;;;;;;;;5033731;28;20212;-57
2023/05/31 03:50:20;;;;;;;3.08;1.10;;;;;;;;;;5032907;28;20215;-56
2023/05/31 03:52:47;;;;;;;6.75;1.60;;;;;;;;;;5026030;28;20642;-57
2023/05/31 03:55:15;;;;;;;2.50;1.20;;;;;;;;;;5035091;28;20270;-56
2023/05/31 03:57:42;;;;;;;5.97;1.33;;;;;;;;;;5017394;28;20227;-54
2023/05/31 04:00:13;;;;;;;2.80;1.48;;;;;;;;;;5017269;28;20205;-52
2023/05/31 04:02:41;;;;;;;2.72;1.05;;;;;;;;;;5035428;28;20723;-51
2023/05/31 04:05:28;;;;;;;2.05;1.40;;;;;;;;;;5031499;28;20315;-50
2023/05/31 04:07:56;;;;;;;3.92;1.42;;;;;;;;;;5029144;28;20242;-50
2023/05/31 04:10:23;;;;;;;2.50;1.17;;;;;;;;;;5037901;28;20228;-50
2023/05/31 04:12:50;;;;;;;1.85;1.40;;;;;;;;;;5035154;28;20228;-51
2023/05/31 04:15:19;;;;;;;3.05;1.35;;;;;;;;;;5037588;28;20244;-54
2023/05/31 04:17:46;;;;;;;2.33;1.00;;;;;;;;;;5037898;28;20234;-51
2023/05/31 04:20:14;;;;;;;1.98;1.30;;;;;;;;;;5037567;28;20704;-50
2023/05/31 04:22:42;;;;;;;3.83;1.13;;;;;;;;;;5035488;28;20261;-52
2023/05/31 04:25:12;;;;;;;2.65;1.23;;;;;;;;;;5043144;28;20220;-51
2023/05/31 04:27:41;;;;;;;1.75;1.17;;;;;;;;;;5017780;28;20259;-52
2023/05/31 04:30:09;;;;;;;2.53;1.25;;;;;;;;;;5017908;28;20242;-51
2023/05/31 04:32:36;;;;;;;2.70;1.10;;;;;;;;;;5017771;28;20216;-51
2023/05/31 04:35:05;;;;;;;2.67;1.17;;;;;;;;;;5017536;28;20244;-50
2023/05/31 04:37:35;;;;;;;2.40;1.10;;;;;;;;;;5017961;28;20244;-53
2023/05/31 04:40:09;;;;;;;5.43;1.27;;;;;;;;;;5017671;28;20232;-50
2023/05/31 04:42:36;;;;;;;3.00;1.52;;;;;;;;;;5016633;28;20787;-53
2023/05/31 04:45:07;;;;;;;2.17;0.90;;;;;;;;;;5016478;28;20278;-50
2023/05/31 04:47:45;;;;;;;3.65;1.30;;;;;;;;;;5017731;28;20219;-50
2023/05/31 04:50:13;;;;;;;3.22;1.17;;;;;;;;;;5038231;28;20236;-50
2023/05/31 04:52:41;;;;;;;0.95;0.85;;;;;;;;;;5053679;28;20220;-54
2023/05/31 04:55:09;;;;;;;2.85;1.05;;;;;;;;;;5021865;28;20248;-51
2023/05/31 04:57:36;;;;;;;3.05;1.00;;;;;;;;;;5026924;28;20216;-51
2023/05/31 05:00:10;;;;;;;1.95;1.10;;;;;;;;;;5027311;28;20232;-50
2023/05/31 05:02:44;;;;;;;4.72;1.20;;;;;;;;;;5025835;28;20699;-55
2023/05/31 05:05:13;;;;;;;2.00;1.20;;;;;;;;;;5032178;28;20224;-51
2023/05/31 05:07:41;;;;;;;3.58;1.20;;;;;;;;;;5027685;28;20723;-52
2023/05/31 05:10:10;;;;;;;1.98;0.98;;;;;;;;;;5025341;28;20227;-49
2023/05/31 05:12:37;;;;;;;1.65;1.10;;;;;;;;;;5026910;28;20212;-53
2023/05/31 05:15:06;;;;;;;2.15;1.13;;;;;;;;;;5027101;28;20243;-53
2023/05/31 05:17:33;;;;;;;2.90;1.25;;;;;;;;;;5025986;28;20217;-52
2023/05/31 05:20:01;;;;;;;2.15;1.23;;;;;;;;;;5036964;28;20258;-56
2023/05/31 05:22:28;;;;;;;3.10;1.33;;;;;;;;;;5034794;28;20211;-53
2023/05/31 05:24:57;;;;;;;1.92;1.10;;;;;;;;;;5036623;28;20557;-54
2023/05/31 05:27:24;;;;;;;3.08;1.50;;;;;;;;;;5036819;28;20204;-51
2023/05/31 05:29:53;;;;;;;1.73;1.00;;;;;;;;;;5037415;28;20208;-51
2023/05/31 05:32:21;;;;;;;2.60;0.98;;;;;;;;;;5037206;28;20204;-50
2023/05/31 05:34:50;;;;;;;3.15;1.30;;;;;;;;;;5036860;28;20199;-49
2023/05/31 05:37:17;;;;;;;4.97;1.33;;;;;;;;;;5036500;28;20200;-52
2023/05/31 05:39:44;;;;;;;1.92;1.15;;;;;;;;;;5037151;28;20203;-50
2023/05/31 05:42:12;;;;;;;4.70;1.35;;;;;;;;;;5033473;28;20241;-51
2023/05/31 05:44:40;;;;;;;8.80;1.70;;;;;;;;;;5034644;28;20732;-50
2023/05/31 05:47:07;;;;;;;3.60;1.15;;;;;;;;;;5033848;28;20263;-50
2023/05/31 05:49:35;;;;;;;4.20;1.10;;;;;;;;;;5033476;28;20201;-50
2023/05/31 05:52:02;;;;;;;6.47;1.23;;;;;;;;;;5035005;28;20201;-50
2023/05/31 05:54:29;;;;;;;1.48;0.80;;;;;;;;;;5034865;28;20216;-50
2023/05/31 05:56:56;;;;;;;3.58;0.98;;;;;;;;;;5033780;28;20224;-52
2023/05/31 05:59:27;;;;;;;2.35;1.23;;;;;;;;;;5033331;28;20201;-51
2023/05/31 06:01:58;;;;;;;1.98;0.90;;;;;;;;;;5033333;28;20201;-50
2023/05/31 06:04:26;;;;;;;2.35;1.00;;;;;;;;;;5015652;28;20197;-55
2023/05/31 06:06:53;;;;;;;1.83;1.10;;;;;;;;;;5013153;28;20682;-57
2023/05/31 06:09:21;;;;;;;1.60;0.80;;;;;;;;;;5013028;28;20213;-51
2023/05/31 06:11:48;;;;;;;1.85;1.13;;;;;;;;;;5013389;28;20211;-50
2023/05/31 06:14:16;;;;;;;2.97;1.10;;;;;;;;;;5013160;28;20212;-50
2023/05/31 06:16:47;;;;;;;2.83;1.25;;;;;;;;;;5013814;28;20283;-50
2023/05/31 06:19:14;;;;;;;2.05;1.00;;;;;;;;;;5014659;28;20212;-53
2023/05/31 06:21:42;;;;;;;2.97;0.82;;;;;;;;;;5013180;28;20259;-50
2023/05/31 06:24:10;;;;;;;5.38;1.35;;;;;;;;;;5013149;28;20205;-52
2023/05/31 06:26:38;;;;;;;2.78;1.20;;;;;;;;;;5013224;28;20245;-56
2023/05/31 06:29:05;;;;;;;1.65;1.05;;;;;;;;;;4996937;28;20202;-50
2023/05/31 06:31:59;;;;;;;4.28;1.10;;;;;;;;;;5012108;28;20206;-54
2023/05/31 06:34:31;;;;;;;2.22;1.13;;;;;;;;;;5013091;28;20681;-51
2023/05/31 06:37:00;;;;;;;2.88;0.95;;;;;;;;;;5013166;28;20221;-54
2023/05/31 06:39:28;;;;;;;1.83;1.02;;;;;;;;;;5013125;28;20208;-51
2023/05/31 06:41:55;;;;;;;1.70;0.88;;;;;;;;;;5016909;28;20549;-53
2023/05/31 06:44:45;;;;;;;2.47;1.13;;;;;;;;;;5033153;28;20219;-51
2023/05/31 06:47:41;;;;;;;6.35;1.48;;;;;;;;;;5033534;28;20216;-51
2023/05/31 06:50:15;;;;;;;2.00;1.30;;;;;;;;;;5033969;28;20195;-51
2023/05/31 06:52:45;;;;;;;4.25;1.45;;;;;;;;;;5033622;28;20231;-52
2023/05/31 06:55:29;;;;;;;2.35;1.10;;;;;;;;;;5016520;28;20209;-53
2023/05/31 06:57:57;;;;;;;4.80;1.63;;;;;;;;;;5015928;28;20208;-54
2023/05/31 07:00:24;;;;;;;1.25;0.90;;;;;;;;;;5033393;28;20211;-53
2023/05/31 07:02:51;;;;;;;2.10;1.00;;;;;;;;;;5016199;28;20209;-54
2023/05/31 07:05:19;;;;;;;2.35;1.20;;;;;;;;;;5016157;28;20228;-50
2023/05/31 07:07:47;;;;;;;8.40;1.42;;;;;;;;;;5016176;28;20203;-51
2023/05/31 07:10:15;;;;;;;2.88;1.00;;;;;;;;;;5016171;28;20215;-51
2023/05/31 07:12:42;;;;;;;3.08;1.08;;;;;;;;;;5033180;28;20736;-50
2023/05/31 07:15:10;;;;;;;2.63;1.08;;;;;;;;;;5016242;28;20204;-49
2023/05/31 07:17:37;;;;;;;3.63;1.23;;;;;;;;;;5015784;28;20598;-53
2023/05/31 07:20:06;;;;;;;2.38;0.90;;;;;;;;;;5015630;28;20661;-50
2023/05/31 07:22:34;;;;;;;1.67;1.10;;;;;;;;;;5033193;28;20204;-53
2023/05/31 07:25:03;;;;;;;5.38;1.25;;;;;;;;;;5034357;28;20208;-53
2023/05/31 07:27:31;;;;;;;2.30;1.38;;;;;;;;;;5037425;28;20200;-50
2023/05/31 07:29:58;;;;;;;2.40;1.30;;;;;;;;;;5037570;28;20201;-51
2023/05/31 07:32:25;;;;;;;1.65;1.20;;;;;;;;;;5037472;28;20337;-53
2023/05/31 07:34:52;;;;;;;1.92;0.90;;;;;;;;;;5037384;28;20204;-54
2023/05/31 07:37:30;;;;;;;3.10;1.13;;;;;;;;;;5021114;28;20742;-54
2023/05/31 07:39:58;;;;;;;2.88;1.25;;;;;;;;;;5037197;28;20208;-51
2023/05/31 07:42:25;;;;;;;2.33;1.23;;;;;;;;;;5037225;28;20630;-53
2023/05/31 07:44:53;;;;;;;2.83;1.15;;;;;;;;;;5037160;28;20212;-52
2023/05/31 07:47:21;;;;;;;1.98;1.10;;;;;;;;;;5037096;28;20200;-57
2023/05/31 07:49:51;;;;;;;2.72;1.10;;;;;;;;;;5037232;28;20212;-54
2023/05/31 07:52:21;;;;;;;4.07;1.45;;;;;;;;;;5036958;28;20201;-51
2023/05/31 07:54:49;;;;;;;3.15;1.25;;;;;;;;;;5037341;28;20274;-55
2023/05/31 07:57:17;;;;;;;1.90;0.85;;;;;;;;;;5036973;28;20278;-52
2023/05/31 07:59:44;;;;;;;2.97;0.93;;;;;;;;;;5036800;28;20226;-54
2023/05/31 08:02:11;;;;;;;2.88;1.10;;;;;;;;;;5036731;28;20580;-58
2023/05/31 08:04:39;;;;;;;1.95;0.80;;;;;;;;;;5036740;28;20206;-56
2023/05/31 08:07:06;;;;;;;2.72;1.13;;;;;;;;;;5036597;28;20620;-55
2023/05/31 08:09:33;;;;;;;2.17;0.90;;;;;;;;;;5002368;28;20271;-54
2023/05/31 08:12:02;;;;;;;2.08;0.82;;;;;;;;;;5036884;28;20216;-52
2023/05/31 08:14:30;;;;;;;1.65;0.85;;;;;;;;;;5036767;28;20262;-51
2023/05/31 08:16:57;;;;;;;2.75;1.00;;;;;;;;;;5036336;28;20224;-54
2023/05/31 08:19:24;;;;;;;1.13;0.60;;;;;;;;;;5036602;28;20208;-51
2023/05/31 08:21:51;;;;;;;3.70;0.85;;;;;;;;;;5036728;28;20201;-52
2023/05/31 08:24:19;;;;;;;2.25;0.70;;;;;;;;;;5036596;28;20208;-51
2023/05/31 08:26:46;;;;;;;3.17;0.70;;;;;;;;;;5036567;28;20551;-52
2023/05/31 08:29:14;;;;;;;2.75;0.57;;;;;;;;;;5036219;28;20688;-56
2023/05/31 08:31:41;;;;;;;2.78;0.93;;;;;;;;;;5036188;28;20619;-52
2023/05/31 08:34:09;;;;;;;4.43;0.90;;;;;;;;;;5036050;28;20205;-51
2023/05/31 08:36:36;;;;;;;0.73;0.50;;;;;;;;;;5036178;28;20228;-57
2023/05/31 08:39:03;;;;;;;2.10;0.70;;;;;;;;;;5036277;28;20204;-55
2023/05/31 08:41:33;;;;;;;3.70;0.73;;;;;;;;;;5036546;28;20205;-52
2023/05/31 08:44:01;;;;;;;1.20;0.57;;;;;;;;;;5035899;28;20657;-54
2023/05/31 08:46:29;;;;;;;1.67;0.60;;;;;;;;;;5018595;28;20212;-55
2023/05/31 08:49:00;;;;;;;2.17;0.77;;;;;;;;;;5035774;28;20658;-54
2023/05/31 08:51:28;;;;;;;3.85;0.73;;;;;;;;;;5018796;28;20203;-52
2023/05/31 08:53:57;;;;;;;2.63;0.75;;;;;;;;;;5018616;28;20205;-54
2023/05/31 08:56:26;;;;;;;3.88;0.85;;;;;;;;;;5035893;28;20278;-51
2023/05/31 08:58:54;;;;;;;2.63;0.65;;;;;;;;;;5035597;28;20657;-50
2023/05/31 09:01:22;;;;;;;1.90;0.70;;;;;;;;;;5035842;28;20538;-54
2023/05/31 09:03:51;;;;;;;3.50;0.63;;;;;;;;;;5035882;28;20204;-52
2023/05/31 09:06:18;;;;;;;1.15;0.68;;;;;;;;;;5018025;28;20213;-52
2023/05/31 09:08:47;;;;;;;1.42;0.70;;;;;;;;;;5035567;28;20205;-54
2023/05/31 09:11:14;;;;;;;1.63;0.70;;;;;;;;;;5035415;28;20259;-53
2023/05/31 09:13:42;;;;;;;0.88;0.57;;;;;;;;;;5018188;28;20208;-55
2023/05/31 09:16:09;;;;;;;1.25;0.63;;;;;;;;;;5035244;28;20231;-53
2023/05/31 09:18:38;;;;;;;0.70;0.50;;;;;;;;;;5035761;28;20201;-55
2023/05/31 09:21:14;;;;;;;1.13;0.60;;;;;;;;;;5035672;28;20201;-52
2023/05/31 09:23:58;;;;;;;0.80;0.50;;;;;;;;;;5035228;28;20715;-54
2023/05/31 09:26:26;;;;;;;0.90;0.45;;;;;;;;;;5035175;28;20204;-55
2023/05/31 09:28:55;;;;;;;1.35;0.60;;;;;;;;;;5017693;28;20227;-52
2023/05/31 09:31:22;;;;;;;1.30;0.60;;;;;;;;;;5035314;28;20308;-56
2023/05/31 09:33:54;;;;;;;2.10;0.70;;;;;;;;;;5034975;28;20208;-55
2023/05/31 09:36:28;;;;;;;2.97;0.50;;;;;;;;;;5035211;28;20307;-54
2023/05/31 09:39:04;;;;;;;1.38;0.68;;;;;;;;;;5034926;28;20593;-50
2023/05/31 09:41:32;;;;;;;0.75;0.40;;;;;;;;;;5035040;28;20560;-53
2023/05/31 09:44:00;;;;;;;2.22;0.70;;;;;;;;;;5034956;28;20208;-55
2023/05/31 09:46:27;;;;;;;1.73;0.77;;;;;;;;;;5035008;28;20215;-53
2023/05/31 09:48:58;;;;;;;1.73;0.63;;;;;;;;;;5034000;28;20200;-53
2023/05/31 09:51:26;;;;;;;2.30;0.73;;;;;;;;;;5034697;28;20209;-49
2023/05/31 09:53:57;;;;;;;1.38;0.75;;;;;;;;;;5034944;28;20216;-49
2023/05/31 09:56:27;;;;;;;2.05;0.90;;;;;;;;;;5001552;28;20251;-52
2023/05/31 09:58:57;;;;;;;0.73;0.43;;;;;;;;;;5017391;28;20208;-52
2023/05/31 10:01:25;;;;;;;0.75;0.50;;;;;;;;;;5034603;28;20231;-50
2023/05/31 10:03:52;;;;;;;3.92;0.73;;;;;;;;;;5034400;28;20208;-50
2023/05/31 10:06:20;;;;;;;1.70;0.77;;;;;;;;;;5034421;28;20749;-51
2023/05/31 10:08:47;;;;;;;1.63;0.73;;;;;;;;;;5034548;28;20208;-51
2023/05/31 10:11:21;;;;;;;1.00;0.57;;;;;;;;;;5034456;28;20614;-55
2023/05/31 10:13:50;;;;;;;2.17;0.75;;;;;;;;;;5034244;28;20703;-53
2023/05/31 10:16:20;;;;;;;1.48;0.65;;;;;;;;;;5016575;28;20654;-54
2023/05/31 10:18:49;;;;;;;5.18;0.60;;;;;;;;;;5016860;28;20208;-56
2023/05/31 10:21:24;;;;;;;1.88;0.70;;;;;;;;;;5016624;28;20687;-53
2023/05/31 10:24:20;;;;;;;1.77;0.63;;;;;;;;;;5034048;28;20204;-50
2023/05/31 10:27:04;;;;;;;1.08;0.45;;;;;;;;;;5014460;28;20205;-52
2023/05/31 10:29:43;;;;;;;0.90;0.60;;;;;;;;;;5017130;28;20193;-53
2023/05/31 10:32:17;;;;;;;1.13;0.50;;;;;;;;;;5016933;28;20570;-51
2023/05/31 10:34:44;;;;;;;1.67;0.57;;;;;;;;;;5017133;28;20216;-50
2023/05/31 10:37:13;;;;;;;0.60;0.50;;;;;;;;;;5016885;28;20232;-51
2023/05/31 10:40:11;;;;;;;1.80;0.70;;;;;;;;;;5016589;28;20205;-54
2023/05/31 10:42:45;;;;;;;0.70;0.40;;;;;;;;;;5034176;28;20611;-52
2023/05/31 10:45:24;;;;;;;0.93;0.43;;;;;;;;;;5016600;28;20204;-55
2023/05/31 10:47:57;;;;;;;1.50;0.70;;;;;;;;;;5034050;28;20208;-53
2023/05/31 10:50:24;;;;;;;1.27;0.60;;;;;;;;;;5033862;28;20204;-50
2023/05/31 10:52:52;;;;;;;0.55;0.38;;;;;;;;;;5033846;28;20300;-53
2023/05/31 10:55:22;;;;;;;1.33;0.70;;;;;;;;;;5033736;28;20208;-56
2023/05/31 10:57:53;;;;;;;1.02;0.57;;;;;;;;;;5033329;28;20711;-52
2023/05/31 11:00:23;;;;;;;2.67;0.38;;;;;;;;;;5033191;28;20197;-51
2023/05/31 11:02:54;;;;;;;1.33;0.68;;;;;;;;;;5033755;28;20247;-53
2023/05/31 11:05:27;;;;;;;1.00;0.50;;;;;;;;;;5051117;28;20239;-55
2023/05/31 11:07:58;;;;;;;2.13;0.60;;;;;;;;;;5052402;28;20203;-55
2023/05/31 11:10:31;;;;;;;1.73;0.73;;;;;;;;;;5052871;28;20212;-51
2023/05/31 11:13:03;;;;;;;2.88;0.60;;;;;;;;;;5053288;28;20664;-55
2023/05/31 11:15:41;;;;;;;0.65;0.60;;;;;;;;;;5053261;28;20234;-54
2023/05/31 11:18:28;;;;;;;1.05;0.68;;;;;;;;;;5045672;28;20684;-51
2023/05/31 11:20:56;;;;;;;1.08;0.85;;;;;;;;;;5026085;28;20203;-50
2023/05/31 11:23:24;;;;;;;1.10;0.47;;;;;;;;;;5044963;28;20197;-49
2023/05/31 11:26:10;;;;;;;2.47;0.63;;;;;;;;;;5047399;28;20556;-51
2023/05/31 11:28:55;;;;;;;0.73;0.52;;;;;;;;;;5026568;28;20192;-53
2023/05/31 11:31:48;;;;;;;0.93;0.55;;;;;;;;;;5040973;28;20306;-55
2023/05/31 11:34:18;;;;;;;1.33;0.57;;;;;;;;;;5041828;28;20642;-51
2023/05/31 11:36:46;;;;;;;0.73;0.47;;;;;;;;;;5042204;28;20213;-54
2023/05/31 11:39:13;;;;;;;1.58;0.70;;;;;;;;;;5025125;28;20223;-53
2023/05/31 11:41:40;;;;;;;2.20;0.60;;;;;;;;;;5043572;28;20200;-53
2023/05/31 11:44:10;;;;;;;0.43;0.40;;;;;;;;;;5042279;28;20212;-57
2023/05/31 11:46:40;;;;;;;1.30;0.40;;;;;;;;;;5044108;28;20196;-53
2023/05/31 11:49:11;;;;;;;1.10;0.55;;;;;;;;;;5027816;28;20290;-55
2023/05/31 11:51:43;;;;;;;1.33;0.57;;;;;;;;;;5042957;28;20192;-54
2023/05/31 11:54:14;;;;;;;1.20;0.43;;;;;;;;;;5043298;28;20291;-54
2023/05/31 11:56:42;;;;;;;0.70;0.55;;;;;;;;;;5025459;28;20184;-49
2023/05/31 11:59:10;;;;;;;4.57;0.82;;;;;;;;;;5029206;28;20196;-52
2023/05/31 12:01:39;;;;;;;1.55;0.70;;;;;;;;;;5052274;28;20209;-50
2023/05/31 12:04:06;;;;;;;2.03;0.70;;;;;;;;;;4994225;28;20220;-53
2023/05/31 12:06:35;;;;;;;1.05;0.60;;;;;;;;;;5041508;28;20204;-46
2023/05/31 12:09:03;;;;;;;1.00;0.60;;;;;;;;;;5038684;28;20565;-46
2023/05/31 12:11:30;;;;;;;0.52;0.38;;;;;;;;;;5042757;28;20606;-47
2023/05/31 12:13:58;;;;;;;1.27;0.57;;;;;;;;;;5044812;28;20196;-46
2023/05/31 12:16:27;;;;;;;1.75;0.73;;;;;;;;;;5042903;28;20254;-45
2023/05/31 12:18:54;;;;;;;1.33;0.68;;;;;;;;;;5044609;28;20219;-45
2023/05/31 12:21:24;;;;;;;0.93;0.55;;;;;;;;;;5028566;28;20200;-45
2023/05/31 12:23:57;;;;;;;0.82;0.55;;;;;;;;;;5045416;28;20200;-45
2023/05/31 12:26:27;;;;;;;1.75;0.68;;;;;;;;;;5044354;28;20204;-46
2023/05/31 12:28:54;;;;;;;2.22;0.43;;;;;;;;;;5052236;28;20208;-45
2023/05/31 12:31:28;;;;;;;1.80;0.80;;;;;;;;;;5042801;28;20212;-45
2023/05/31 12:34:00;;;;;;;0.75;0.50;;;;;;;;;;5046868;28;20204;-47
2023/05/31 12:36:27;;;;;;;1.65;0.63;;;;;;;;;;5019860;28;20270;-45
2023/05/31 12:38:57;;;;;;;0.98;0.52;;;;;;;;;;5042114;28;20605;-46
2023/05/31 12:41:25;;;;;;;1.35;0.57;;;;;;;;;;5041819;28;20273;-46
2023/05/31 12:43:54;;;;;;;1.52;0.82;;;;;;;;;;5046763;28;20228;-49
2023/05/31 12:46:21;;;;;;;2.78;1.00;;;;;;;;;;5038739;28;20231;-46
2023/05/31 12:48:48;;;;;;;4.13;0.80;;;;;;;;;;5040533;28;20228;-45
2023/05/31 12:51:22;;;;;;;1.15;0.70;;;;;;;;;;5052602;28;20758;-46
2023/05/31 12:53:50;;;;;;;1.45;0.57;;;;;;;;;;5053243;28;20594;-46
2023/05/31 12:56:17;;;;;;;0.60;0.47;;;;;;;;;;5053200;28;20224;-46
2023/05/31 12:58:44;;;;;;;1.13;0.60;;;;;;;;;;5054087;28;20239;-47
2023/05/31 13:01:12;;;;;;;1.10;0.60;;;;;;;;;;5036557;28;20270;-46
2023/05/31 13:03:39;;;;;;;5.00;0.70;;;;;;;;;;5047610;28;20286;-46
2023/05/31 13:06:06;;;;;;;1.60;0.75;;;;;;;;;;5042561;28;20232;-45
2023/05/31 13:08:33;;;;;;;0.95;0.50;;;;;;;;;;5041914;28;20223;-45
2023/05/31 13:11:01;;;;;;;1.25;0.70;;;;;;;;;;5034554;28;20225;-50
2023/05/31 13:13:28;;;;;;;5.20;0.80;;;;;;;;;;5034921;28;20608;-47
2023/05/31 13:15:55;;;;;;;1.42;0.70;;;;;;;;;;5034581;28;20228;-46
2023/05/31 13:18:22;;;;;;;1.23;0.55;;;;;;;;;;5034084;28;20631;-45
2023/05/31 13:20:49;;;;;;;1.08;0.70;;;;;;;;;;5050346;28;20227;-45
2023/05/31 13:23:16;;;;;;;2.55;0.82;;;;;;;;;;5053343;28;20227;-46
2023/05/31 13:25:43;;;;;;;2.15;0.73;;;;;;;;;;5054453;28;20249;-46
2023/05/31 13:28:10;;;;;;;1.17;0.70;;;;;;;;;;5054254;28;20223;-45
2023/05/31 13:30:38;;;;;;;1.45;0.80;;;;;;;;;;5051152;28;20236;-46
2023/05/31 13:33:05;;;;;;;1.13;0.60;;;;;;;;;;5042254;28;20697;-46
2023/05/31 13:35:34;;;;;;;1.05;0.70;;;;;;;;;;5038533;28;20216;-49
2023/05/31 13:38:02;;;;;;;3.50;0.80;;;;;;;;;;5042679;28;20248;-46
2023/05/31 13:40:29;;;;;;;1.60;0.82;;;;;;;;;;5046123;28;20223;-46
2023/05/31 13:42:56;;;;;;;1.15;0.52;;;;;;;;;;5042766;28;20240;-46
2023/05/31 13:45:23;;;;;;;1.45;0.55;;;;;;;;;;5044032;28;20701;-46
2023/05/31 13:47:51;;;;;;;1.05;0.60;;;;;;;;;;5047958;28;20286;-45
2023/05/31 13:50:18;;;;;;;2.13;0.60;;;;;;;;;;5052276;28;20216;-47
2023/05/31 13:52:45;;;;;;;4.82;0.75;;;;;;;;;;5053857;28;20227;-46
2023/05/31 13:55:15;;;;;;;0.90;0.57;;;;;;;;;;5046637;28;20220;-47
2023/05/31 13:57:42;;;;;;;1.02;0.60;;;;;;;;;;5034186;28;20234;-46
2023/05/31 14:00:10;;;;;;;4.28;0.88;;;;;;;;;;5033959;28;20224;-47
2023/05/31 14:02:41;;;;;;;1.33;0.60;;;;;;;;;;5040876;28;20225;-46
2023/05/31 14:05:09;;;;;;;1.00;0.55;;;;;;;;;;5052970;28;20220;-47
2023/05/31 14:07:36;;;;;;;0.93;0.65;;;;;;;;;;5053797;28;20228;-46
2023/05/31 14:10:04;;;;;;;1.33;0.60;;;;;;;;;;5031179;28;20719;-46
2023/05/31 14:12:31;;;;;;;1.75;0.73;;;;;;;;;;5047251;28;20246;-46
2023/05/31 14:14:59;;;;;;;1.42;0.52;;;;;;;;;;5049282;28;20311;-46
2023/05/31 14:17:26;;;;;;;1.13;0.70;;;;;;;;;;5045107;28;20223;-47
2023/05/31 14:19:53;;;;;;;0.93;0.60;;;;;;;;;;5041339;28;20220;-46
2023/05/31 14:22:20;;;;;;;1.13;0.50;;;;;;;;;;5051631;28;20273;-48
2023/05/31 14:24:47;;;;;;;0.98;0.60;;;;;;;;;;5053407;28;20239;-47
2023/05/31 14:27:17;;;;;;;0.82;0.55;;;;;;;;;;5053117;28;20228;-46
2023/05/31 14:29:45;;;;;;;0.82;0.60;;;;;;;;;;5053718;28;20220;-46
2023/05/31 14:32:14;;;;;;;1.88;0.80;;;;;;;;;;5052017;28;20575;-46
2023/05/31 14:34:45;;;;;;;1.40;0.85;;;;;;;;;;5038843;28;20220;-45
2023/05/31 14:37:13;;;;;;;1.45;0.70;;;;;;;;;;5045339;28;20231;-45
2023/05/31 14:40:00;;;;;;;0.80;0.63;;;;;;;;;;5041509;28;20224;-46
2023/05/31 14:42:27;;;;;;;1.80;0.70;;;;;;;;;;5040546;28;20235;-46
2023/05/31 14:44:55;;;;;;;3.65;0.50;;;;;;;;;;5042847;28;20217;-48
2023/05/31 14:47:22;;;;;;;2.03;0.60;;;;;;;;;;5045627;28;20254;-45
2023/05/31 14:49:50;;;;;;;2.47;0.70;;;;;;;;;;5044303;28;20216;-45
2023/05/31 14:52:17;;;;;;;1.33;0.88;;;;;;;;;;5032763;28;20315;-47
2023/05/31 14:54:44;;;;;;;1.58;0.75;;;;;;;;;;5035985;28;20221;-46
2023/05/31 14:57:11;;;;;;;1.35;0.60;;;;;;;;;;5032516;28;20267;-47